sensor_id;sensor_type;location;lat;lon;timestamp;P1;durP1;ratioP1;P2;durP2;ratioP2
60908;SDS011;46780;48.128;-1.704;2023-08-07T00:00:08;14.82;;;3.53;;
60908;SDS011;46780;48.128;-1.704;2023-08-07T00:02:35;12.15;;;3.10;;
60908;SDS011;46780;48.128;-1.704;2023-08-07T00:05:01;13.77;;;3.42;;
60908;SDS011;46780;48.128;-1.704;2023-08-07T00:07:28;13.27;;;3.60;;
60908;SDS011;46780;48.128;-1.704;2023-08-07T00:09:56;14.15;;;4.00;;
60908;SDS011;46780;48.128;-1.704;2023-08-07T00:12:22;15.07;;;3.78;;
60908;SDS011;46780;48.128;-1.704;2023-08-07T00:14:49;16.65;;;3.80;;
60908;SDS011;46780;48.128;-1.704;2023-08-07T00:17:16;11.45;;;3.65;;
60908;SDS011;46780;48.128;-1.704;2023-08-07T00:19:43;14.23;;;3.75;;
60908;SDS011;46780;48.128;-1.704;2023-08-07T00:22:09;12.82;;;3.53;;
60908;SDS011;46780;48.128;-1.704;2023-08-07T00:24:35;14.48;;;3.50;;
60908;SDS011;46780;48.128;-1.704;2023-08-07T00:27:04;12.45;;;4.00;;
60908;SDS011;46780;48.128;-1.704;2023-08-07T00:29:30;13.45;;;3.65;;
60908;SDS011;46780;48.128;-1.704;2023-08-07T00:31:57;11.80;;;3.60;;
60908;SDS011;46780;48.128;-1.704;2023-08-07T00:34:23;13.40;;;3.72;;
60908;SDS011;46780;48.128;-1.704;2023-08-07T00:36:50;17.15;;;4.15;;
60908;SDS011;46780;48.128;-1.704;2023-08-07T00:39:16;17.55;;;4.13;;
60908;SDS011;46780;48.128;-1.704;2023-08-07T00:41:43;14.48;;;3.85;;
60908;SDS011;46780;48.128;-1.704;2023-08-07T00:44:11;17.48;;;3.85;;
60908;SDS011;46780;48.128;-1.704;2023-08-07T00:46:37;12.60;;;4.20;;
60908;SDS011;46780;48.128;-1.704;2023-08-07T00:49:04;14.20;;;4.30;;
60908;SDS011;46780;48.128;-1.704;2023-08-07T00:51:31;14.77;;;4.35;;
60908;SDS011;46780;48.128;-1.704;2023-08-07T00:53:58;14.55;;;4.07;;
60908;SDS011;46780;48.128;-1.704;2023-08-07T00:56:26;14.85;;;4.72;;
60908;SDS011;46780;48.128;-1.704;2023-08-07T00:58:53;12.55;;;4.05;;
60908;SDS011;46780;48.128;-1.704;2023-08-07T01:01:21;18.08;;;4.47;;
60908;SDS011;46780;48.128;-1.704;2023-08-07T01:03:48;12.32;;;4.13;;
60908;SDS011;46780;48.128;-1.704;2023-08-07T01:06:15;18.52;;;4.93;;
60908;SDS011;46780;48.128;-1.704;2023-08-07T01:08:42;13.98;;;4.00;;
60908;SDS011;46780;48.128;-1.704;2023-08-07T01:11:13;14.77;;;4.00;;
60908;SDS011;46780;48.128;-1.704;2023-08-07T01:13:49;12.48;;;4.20;;
60908;SDS011;46780;48.128;-1.704;2023-08-07T01:16:26;13.90;;;4.40;;
60908;SDS011;46780;48.128;-1.704;2023-08-07T01:19:00;16.33;;;4.75;;
60908;SDS011;46780;48.128;-1.704;2023-08-07T01:21:28;13.15;;;4.15;;
60908;SDS011;46780;48.128;-1.704;2023-08-07T01:23:56;13.02;;;4.45;;
60908;SDS011;46780;48.128;-1.704;2023-08-07T01:26:22;19.67;;;4.50;;
60908;SDS011;46780;48.128;-1.704;2023-08-07T01:28:50;12.70;;;4.30;;
60908;SDS011;46780;48.128;-1.704;2023-08-07T01:31:24;11.05;;;3.90;;
60908;SDS011;46780;48.128;-1.704;2023-08-07T01:33:57;12.77;;;4.50;;
60908;SDS011;46780;48.128;-1.704;2023-08-07T01:36:26;14.43;;;4.88;;
60908;SDS011;46780;48.128;-1.704;2023-08-07T01:38:56;16.08;;;4.47;;
60908;SDS011;46780;48.128;-1.704;2023-08-07T01:41:23;12.60;;;4.13;;
60908;SDS011;46780;48.128;-1.704;2023-08-07T01:43:50;13.57;;;4.10;;
60908;SDS011;46780;48.128;-1.704;2023-08-07T01:46:17;13.98;;;4.38;;
60908;SDS011;46780;48.128;-1.704;2023-08-07T01:48:44;13.27;;;4.40;;
60908;SDS011;46780;48.128;-1.704;2023-08-07T01:51:10;15.57;;;4.40;;
60908;SDS011;46780;48.128;-1.704;2023-08-07T01:53:37;15.88;;;4.53;;
60908;SDS011;46780;48.128;-1.704;2023-08-07T01:56:05;12.60;;;4.53;;
60908;SDS011;46780;48.128;-1.704;2023-08-07T01:58:31;14.02;;;4.45;;
60908;SDS011;46780;48.128;-1.704;2023-08-07T02:00:58;14.95;;;4.38;;
60908;SDS011;46780;48.128;-1.704;2023-08-07T02:03:24;17.48;;;4.60;;
60908;SDS011;46780;48.128;-1.704;2023-08-07T02:05:51;15.50;;;4.30;;
60908;SDS011;46780;48.128;-1.704;2023-08-07T02:08:17;13.02;;;4.50;;
60908;SDS011;46780;48.128;-1.704;2023-08-07T02:10:44;14.20;;;4.25;;
60908;SDS011;46780;48.128;-1.704;2023-08-07T02:13:12;16.08;;;4.55;;
60908;SDS011;46780;48.128;-1.704;2023-08-07T02:15:38;17.58;;;4.70;;
60908;SDS011;46780;48.128;-1.704;2023-08-07T02:18:05;17.15;;;4.47;;
60908;SDS011;46780;48.128;-1.704;2023-08-07T02:20:31;11.90;;;4.28;;
60908;SDS011;46780;48.128;-1.704;2023-08-07T02:22:58;10.43;;;3.80;;
60908;SDS011;46780;48.128;-1.704;2023-08-07T02:25:24;13.73;;;4.10;;
60908;SDS011;46780;48.128;-1.704;2023-08-07T02:27:51;17.13;;;4.80;;
60908;SDS011;46780;48.128;-1.704;2023-08-07T02:30:19;16.58;;;4.28;;
60908;SDS011;46780;48.128;-1.704;2023-08-07T02:32:45;16.65;;;4.40;;
60908;SDS011;46780;48.128;-1.704;2023-08-07T02:35:12;15.73;;;4.20;;
60908;SDS011;46780;48.128;-1.704;2023-08-07T02:37:38;14.00;;;4.38;;
60908;SDS011;46780;48.128;-1.704;2023-08-07T02:40:05;13.13;;;4.53;;
60908;SDS011;46780;48.128;-1.704;2023-08-07T02:42:32;17.00;;;4.30;;
60908;SDS011;46780;48.128;-1.704;2023-08-07T02:44:59;16.98;;;4.43;;
60908;SDS011;46780;48.128;-1.704;2023-08-07T02:47:28;17.88;;;4.68;;
60908;SDS011;46780;48.128;-1.704;2023-08-07T02:49:54;14.60;;;4.30;;
60908;SDS011;46780;48.128;-1.704;2023-08-07T02:52:21;16.23;;;4.30;;
60908;SDS011;46780;48.128;-1.704;2023-08-07T02:54:47;18.33;;;4.47;;
60908;SDS011;46780;48.128;-1.704;2023-08-07T02:57:14;17.55;;;4.55;;
60908;SDS011;46780;48.128;-1.704;2023-08-07T02:59:40;17.80;;;4.47;;
60908;SDS011;46780;48.128;-1.704;2023-08-07T03:02:07;14.93;;;4.70;;
60908;SDS011;46780;48.128;-1.704;2023-08-07T03:04:35;15.63;;;4.82;;
60908;SDS011;46780;48.128;-1.704;2023-08-07T03:07:01;19.00;;;4.60;;
60908;SDS011;46780;48.128;-1.704;2023-08-07T03:09:28;18.33;;;4.80;;
60908;SDS011;46780;48.128;-1.704;2023-08-07T03:11:54;12.40;;;4.20;;
60908;SDS011;46780;48.128;-1.704;2023-08-07T03:14:21;16.80;;;4.65;;
60908;SDS011;46780;48.128;-1.704;2023-08-07T03:16:47;16.17;;;4.75;;
60908;SDS011;46780;48.128;-1.704;2023-08-07T03:19:14;14.60;;;4.45;;
60908;SDS011;46780;48.128;-1.704;2023-08-07T03:21:42;18.10;;;5.30;;
60908;SDS011;46780;48.128;-1.704;2023-08-07T03:24:08;21.80;;;5.35;;
60908;SDS011;46780;48.128;-1.704;2023-08-07T03:26:35;18.52;;;5.22;;
60908;SDS011;46780;48.128;-1.704;2023-08-07T03:29:01;14.48;;;4.88;;
60908;SDS011;46780;48.128;-1.704;2023-08-07T03:31:28;17.80;;;4.78;;
60908;SDS011;46780;48.128;-1.704;2023-08-07T03:33:54;18.60;;;5.10;;
60908;SDS011;46780;48.128;-1.704;2023-08-07T03:36:21;17.38;;;4.95;;
60908;SDS011;46780;48.128;-1.704;2023-08-07T03:38:49;14.02;;;4.72;;
60908;SDS011;46780;48.128;-1.704;2023-08-07T03:41:16;14.10;;;4.70;;
60908;SDS011;46780;48.128;-1.704;2023-08-07T03:43:42;18.08;;;4.93;;
60908;SDS011;46780;48.128;-1.704;2023-08-07T03:46:09;18.35;;;4.90;;
60908;SDS011;46780;48.128;-1.704;2023-08-07T03:48:35;17.17;;;5.20;;
60908;SDS011;46780;48.128;-1.704;2023-08-07T03:51:02;18.05;;;5.78;;
60908;SDS011;46780;48.128;-1.704;2023-08-07T03:53:29;24.92;;;5.97;;
60908;SDS011;46780;48.128;-1.704;2023-08-07T03:55:57;19.13;;;5.38;;
60908;SDS011;46780;48.128;-1.704;2023-08-07T03:58:23;18.38;;;5.60;;
60908;SDS011;46780;48.128;-1.704;2023-08-07T04:00:50;14.80;;;5.22;;
60908;SDS011;46780;48.128;-1.704;2023-08-07T04:03:17;20.45;;;5.30;;
60908;SDS011;46780;48.128;-1.704;2023-08-07T04:05:44;14.70;;;5.63;;
60908;SDS011;46780;48.128;-1.704;2023-08-07T04:08:10;14.85;;;5.05;;
60908;SDS011;46780;48.128;-1.704;2023-08-07T04:10:37;16.23;;;5.70;;
60908;SDS011;46780;48.128;-1.704;2023-08-07T04:13:05;19.67;;;5.72;;
60908;SDS011;46780;48.128;-1.704;2023-08-07T04:15:31;15.63;;;5.20;;
60908;SDS011;46780;48.128;-1.704;2023-08-07T04:17:58;19.13;;;5.78;;
60908;SDS011;46780;48.128;-1.704;2023-08-07T04:20:24;17.55;;;6.10;;
60908;SDS011;46780;48.128;-1.704;2023-08-07T04:22:51;18.75;;;5.57;;
60908;SDS011;46780;48.128;-1.704;2023-08-07T04:25:17;14.25;;;5.80;;
60908;SDS011;46780;48.128;-1.704;2023-08-07T04:27:44;18.35;;;5.85;;
60908;SDS011;46780;48.128;-1.704;2023-08-07T04:30:12;17.35;;;5.60;;
60908;SDS011;46780;48.128;-1.704;2023-08-07T04:32:38;19.15;;;6.05;;
60908;SDS011;46780;48.128;-1.704;2023-08-07T04:35:05;16.60;;;6.10;;
60908;SDS011;46780;48.128;-1.704;2023-08-07T04:37:33;19.52;;;6.60;;
60908;SDS011;46780;48.128;-1.704;2023-08-07T04:39:59;18.55;;;6.10;;
60908;SDS011;46780;48.128;-1.704;2023-08-07T04:42:26;20.67;;;6.40;;
60908;SDS011;46780;48.128;-1.704;2023-08-07T04:44:53;19.15;;;6.28;;
60908;SDS011;46780;48.128;-1.704;2023-08-07T04:47:21;16.30;;;6.68;;
60908;SDS011;46780;48.128;-1.704;2023-08-07T04:49:48;16.63;;;6.45;;
60908;SDS011;46780;48.128;-1.704;2023-08-07T04:52:14;18.33;;;6.47;;
60908;SDS011;46780;48.128;-1.704;2023-08-07T04:54:41;17.35;;;6.43;;
60908;SDS011;46780;48.128;-1.704;2023-08-07T04:57:07;19.02;;;6.47;;
60908;SDS011;46780;48.128;-1.704;2023-08-07T04:59:34;18.55;;;6.13;;
60908;SDS011;46780;48.128;-1.704;2023-08-07T05:02:00;15.43;;;6.45;;
60908;SDS011;46780;48.128;-1.704;2023-08-07T05:04:28;18.33;;;6.53;;
60908;SDS011;46780;48.128;-1.704;2023-08-07T05:06:55;24.67;;;6.75;;
60908;SDS011;46780;48.128;-1.704;2023-08-07T05:09:21;20.25;;;7.00;;
60908;SDS011;46780;48.128;-1.704;2023-08-07T05:11:48;19.48;;;6.90;;
60908;SDS011;46780;48.128;-1.704;2023-08-07T05:14:14;19.60;;;7.10;;
60908;SDS011;46780;48.128;-1.704;2023-08-07T05:16:41;27.13;;;8.13;;
60908;SDS011;46780;48.128;-1.704;2023-08-07T05:19:07;21.95;;;7.63;;
60908;SDS011;46780;48.128;-1.704;2023-08-07T05:21:35;24.20;;;7.45;;
60908;SDS011;46780;48.128;-1.704;2023-08-07T05:24:02;25.35;;;7.97;;
60908;SDS011;46780;48.128;-1.704;2023-08-07T05:26:29;19.88;;;7.40;;
60908;SDS011;46780;48.128;-1.704;2023-08-07T05:28:55;24.60;;;8.27;;
60908;SDS011;46780;48.128;-1.704;2023-08-07T05:31:22;36.17;;;8.43;;
60908;SDS011;46780;48.128;-1.704;2023-08-07T05:33:48;38.28;;;8.20;;
60908;SDS011;46780;48.128;-1.704;2023-08-07T05:36:15;42.83;;;8.80;;
60908;SDS011;46780;48.128;-1.704;2023-08-07T05:38:43;42.72;;;8.07;;
60908;SDS011;46780;48.128;-1.704;2023-08-07T05:41:09;51.60;;;8.05;;
60908;SDS011;46780;48.128;-1.704;2023-08-07T05:43:35;27.17;;;8.00;;
60908;SDS011;46780;48.128;-1.704;2023-08-07T05:46:02;27.77;;;7.75;;
60908;SDS011;46780;48.128;-1.704;2023-08-07T05:48:29;27.27;;;8.02;;
60908;SDS011;46780;48.128;-1.704;2023-08-07T05:50:55;59.42;;;8.32;;
60908;SDS011;46780;48.128;-1.704;2023-08-07T05:53:22;17.75;;;7.45;;
60908;SDS011;46780;48.128;-1.704;2023-08-07T05:55:50;17.48;;;7.03;;
60908;SDS011;46780;48.128;-1.704;2023-08-07T05:58:17;23.60;;;7.07;;
60908;SDS011;46780;48.128;-1.704;2023-08-07T06:00:43;24.42;;;7.55;;
60908;SDS011;46780;48.128;-1.704;2023-08-07T06:03:10;22.45;;;7.30;;
60908;SDS011;46780;48.128;-1.704;2023-08-07T06:05:37;20.83;;;7.00;;
60908;SDS011;46780;48.128;-1.704;2023-08-07T06:08:03;26.40;;;7.03;;
60908;SDS011;46780;48.128;-1.704;2023-08-07T06:10:30;28.90;;;7.53;;
60908;SDS011;46780;48.128;-1.704;2023-08-07T06:12:58;15.70;;;7.13;;
60908;SDS011;46780;48.128;-1.704;2023-08-07T06:15:24;19.23;;;6.90;;
60908;SDS011;46780;48.128;-1.704;2023-08-07T06:17:51;20.05;;;7.00;;
60908;SDS011;46780;48.128;-1.704;2023-08-07T06:20:18;14.82;;;6.68;;
60908;SDS011;46780;48.128;-1.704;2023-08-07T06:22:44;28.33;;;6.88;;
60908;SDS011;46780;48.128;-1.704;2023-08-07T06:25:11;26.67;;;6.72;;
60908;SDS011;46780;48.128;-1.704;2023-08-07T06:27:37;21.60;;;6.93;;
60908;SDS011;46780;48.128;-1.704;2023-08-07T06:30:05;17.90;;;6.68;;
60908;SDS011;46780;48.128;-1.704;2023-08-07T06:32:33;17.05;;;6.90;;
60908;SDS011;46780;48.128;-1.704;2023-08-07T06:34:59;15.90;;;7.30;;
60908;SDS011;46780;48.128;-1.704;2023-08-07T06:37:26;15.40;;;6.35;;
60908;SDS011;46780;48.128;-1.704;2023-08-07T06:39:53;16.08;;;6.55;;
60908;SDS011;46780;48.128;-1.704;2023-08-07T06:42:20;14.38;;;6.32;;
60908;SDS011;46780;48.128;-1.704;2023-08-07T06:44:46;12.05;;;6.38;;
60908;SDS011;46780;48.128;-1.704;2023-08-07T06:47:14;14.40;;;6.10;;
60908;SDS011;46780;48.128;-1.704;2023-08-07T06:49:41;12.73;;;6.30;;
60908;SDS011;46780;48.128;-1.704;2023-08-07T06:52:07;11.60;;;6.03;;
60908;SDS011;46780;48.128;-1.704;2023-08-07T06:54:34;13.60;;;6.35;;
60908;SDS011;46780;48.128;-1.704;2023-08-07T06:57:00;14.48;;;6.50;;
60908;SDS011;46780;48.128;-1.704;2023-08-07T06:59:27;14.35;;;6.50;;
60908;SDS011;46780;48.128;-1.704;2023-08-07T07:01:53;17.52;;;6.10;;
60908;SDS011;46780;48.128;-1.704;2023-08-07T07:04:21;15.50;;;6.10;;
60908;SDS011;46780;48.128;-1.704;2023-08-07T07:06:48;17.00;;;6.45;;
60908;SDS011;46780;48.128;-1.704;2023-08-07T07:09:14;16.45;;;6.45;;
60908;SDS011;46780;48.128;-1.704;2023-08-07T07:11:41;16.73;;;6.45;;
60908;SDS011;46780;48.128;-1.704;2023-08-07T07:14:09;17.85;;;6.45;;
60908;SDS011;46780;48.128;-1.704;2023-08-07T07:16:35;18.00;;;7.18;;
60908;SDS011;46780;48.128;-1.704;2023-08-07T07:19:02;16.58;;;6.68;;
60908;SDS011;46780;48.128;-1.704;2023-08-07T07:21:30;15.70;;;6.72;;
60908;SDS011;46780;48.128;-1.704;2023-08-07T07:23:56;15.85;;;6.05;;
60908;SDS011;46780;48.128;-1.704;2023-08-07T07:26:23;16.17;;;6.38;;
60908;SDS011;46780;48.128;-1.704;2023-08-07T07:28:49;19.90;;;6.95;;
60908;SDS011;46780;48.128;-1.704;2023-08-07T07:31:16;15.68;;;6.18;;
60908;SDS011;46780;48.128;-1.704;2023-08-07T07:33:42;17.15;;;6.70;;
60908;SDS011;46780;48.128;-1.704;2023-08-07T07:36:13;20.80;;;6.50;;
60908;SDS011;46780;48.128;-1.704;2023-08-07T07:38:42;14.15;;;5.97;;
60908;SDS011;46780;48.128;-1.704;2023-08-07T07:41:09;16.52;;;6.13;;
60908;SDS011;46780;48.128;-1.704;2023-08-07T07:43:35;20.25;;;6.15;;
60908;SDS011;46780;48.128;-1.704;2023-08-07T07:46:02;22.35;;;6.38;;
60908;SDS011;46780;48.128;-1.704;2023-08-07T07:48:29;17.98;;;6.05;;
60908;SDS011;46780;48.128;-1.704;2023-08-07T07:50:57;20.15;;;6.38;;
60908;SDS011;46780;48.128;-1.704;2023-08-07T07:53:25;20.73;;;5.88;;
60908;SDS011;46780;48.128;-1.704;2023-08-07T07:55:53;16.98;;;5.80;;
60908;SDS011;46780;48.128;-1.704;2023-08-07T07:58:19;17.75;;;5.93;;
60908;SDS011;46780;48.128;-1.704;2023-08-07T08:00:46;21.92;;;6.18;;
60908;SDS011;46780;48.128;-1.704;2023-08-07T08:03:13;24.20;;;5.47;;
60908;SDS011;46780;48.128;-1.704;2023-08-07T08:05:39;16.25;;;5.00;;
60908;SDS011;46780;48.128;-1.704;2023-08-07T08:08:06;17.45;;;4.72;;
60908;SDS011;46780;48.128;-1.704;2023-08-07T08:10:33;21.77;;;4.90;;
60908;SDS011;46780;48.128;-1.704;2023-08-07T08:13:01;18.23;;;5.20;;
60908;SDS011;46780;48.128;-1.704;2023-08-07T08:15:27;15.43;;;4.45;;
60908;SDS011;46780;48.128;-1.704;2023-08-07T08:17:54;14.85;;;4.00;;
60908;SDS011;46780;48.128;-1.704;2023-08-07T08:20:20;18.83;;;3.85;;
60908;SDS011;46780;48.128;-1.704;2023-08-07T08:22:47;17.85;;;3.85;;
60908;SDS011;46780;48.128;-1.704;2023-08-07T08:25:14;17.45;;;4.22;;
60908;SDS011;46780;48.128;-1.704;2023-08-07T08:27:41;23.60;;;4.00;;
60908;SDS011;46780;48.128;-1.704;2023-08-07T08:30:11;20.83;;;4.03;;
60908;SDS011;46780;48.128;-1.704;2023-08-07T08:32:38;16.33;;;3.50;;
60908;SDS011;46780;48.128;-1.704;2023-08-07T08:35:05;11.63;;;3.30;;
60908;SDS011;46780;48.128;-1.704;2023-08-07T08:37:31;15.73;;;3.47;;
60908;SDS011;46780;48.128;-1.704;2023-08-07T08:39:58;17.02;;;3.03;;
60908;SDS011;46780;48.128;-1.704;2023-08-07T08:42:24;18.13;;;5.10;;
60908;SDS011;46780;48.128;-1.704;2023-08-07T08:44:52;17.02;;;3.53;;
60908;SDS011;46780;48.128;-1.704;2023-08-07T08:47:22;14.75;;;3.10;;
60908;SDS011;46780;48.128;-1.704;2023-08-07T08:49:54;12.18;;;2.95;;
60908;SDS011;46780;48.128;-1.704;2023-08-07T08:52:24;11.85;;;3.08;;
60908;SDS011;46780;48.128;-1.704;2023-08-07T08:54:51;9.98;;;2.67;;
60908;SDS011;46780;48.128;-1.704;2023-08-07T08:57:18;10.00;;;2.35;;
60908;SDS011;46780;48.128;-1.704;2023-08-07T08:59:45;10.13;;;2.45;;
60908;SDS011;46780;48.128;-1.704;2023-08-07T09:02:12;11.95;;;3.03;;
60908;SDS011;46780;48.128;-1.704;2023-08-07T09:04:41;11.73;;;2.53;;
60908;SDS011;46780;48.128;-1.704;2023-08-07T09:07:07;11.10;;;2.40;;
60908;SDS011;46780;48.128;-1.704;2023-08-07T09:09:35;11.77;;;2.42;;
60908;SDS011;46780;48.128;-1.704;2023-08-07T09:12:02;12.55;;;2.72;;
60908;SDS011;46780;48.128;-1.704;2023-08-07T09:14:30;11.32;;;2.85;;
60908;SDS011;46780;48.128;-1.704;2023-08-07T09:16:59;10.77;;;2.88;;
60908;SDS011;46780;48.128;-1.704;2023-08-07T09:19:27;12.65;;;2.47;;
60908;SDS011;46780;48.128;-1.704;2023-08-07T09:21:55;12.25;;;2.60;;
60908;SDS011;46780;48.128;-1.704;2023-08-07T09:24:21;9.77;;;2.50;;
60908;SDS011;46780;48.128;-1.704;2023-08-07T09:26:48;11.65;;;2.65;;
60908;SDS011;46780;48.128;-1.704;2023-08-07T09:29:17;13.02;;;3.10;;
60908;SDS011;46780;48.128;-1.704;2023-08-07T09:31:43;16.17;;;2.95;;
60908;SDS011;46780;48.128;-1.704;2023-08-07T09:34:09;15.18;;;2.90;;
60908;SDS011;46780;48.128;-1.704;2023-08-07T09:36:36;10.57;;;2.50;;
60908;SDS011;46780;48.128;-1.704;2023-08-07T09:39:04;9.32;;;2.70;;
60908;SDS011;46780;48.128;-1.704;2023-08-07T09:41:30;11.88;;;2.47;;
60908;SDS011;46780;48.128;-1.704;2023-08-07T09:43:57;13.93;;;2.65;;
60908;SDS011;46780;48.128;-1.704;2023-08-07T09:46:25;11.98;;;2.75;;
60908;SDS011;46780;48.128;-1.704;2023-08-07T09:48:52;14.55;;;2.60;;
60908;SDS011;46780;48.128;-1.704;2023-08-07T09:51:23;15.43;;;2.85;;
60908;SDS011;46780;48.128;-1.704;2023-08-07T09:53:49;10.13;;;2.63;;
60908;SDS011;46780;48.128;-1.704;2023-08-07T09:56:17;13.32;;;2.50;;
60908;SDS011;46780;48.128;-1.704;2023-08-07T09:58:46;17.50;;;5.05;;
60908;SDS011;46780;48.128;-1.704;2023-08-07T10:01:13;22.35;;;7.00;;
60908;SDS011;46780;48.128;-1.704;2023-08-07T10:03:42;21.63;;;4.78;;
60908;SDS011;46780;48.128;-1.704;2023-08-07T10:06:09;22.45;;;8.27;;
60908;SDS011;46780;48.128;-1.704;2023-08-07T10:08:37;24.35;;;8.98;;
60908;SDS011;46780;48.128;-1.704;2023-08-07T10:11:03;31.20;;;13.55;;
60908;SDS011;46780;48.128;-1.704;2023-08-07T10:13:32;30.77;;;11.70;;
60908;SDS011;46780;48.128;-1.704;2023-08-07T10:15:59;25.05;;;9.40;;
60908;SDS011;46780;48.128;-1.704;2023-08-07T10:18:25;17.98;;;5.50;;
60908;SDS011;46780;48.128;-1.704;2023-08-07T10:20:52;14.27;;;3.03;;
60908;SDS011;46780;48.128;-1.704;2023-08-07T10:23:19;15.85;;;3.38;;
60908;SDS011;46780;48.128;-1.704;2023-08-07T10:25:46;12.65;;;2.92;;
60908;SDS011;46780;48.128;-1.704;2023-08-07T10:28:16;14.02;;;2.53;;
60908;SDS011;46780;48.128;-1.704;2023-08-07T10:30:46;13.07;;;2.97;;
60908;SDS011;46780;48.128;-1.704;2023-08-07T10:33:13;11.20;;;2.90;;
60908;SDS011;46780;48.128;-1.704;2023-08-07T10:35:44;12.82;;;3.00;;
60908;SDS011;46780;48.128;-1.704;2023-08-07T10:38:11;12.05;;;2.80;;
60908;SDS011;46780;48.128;-1.704;2023-08-07T10:43:26;9.98;;;2.70;;
60908;SDS011;46780;48.128;-1.704;2023-08-07T10:45:54;13.27;;;2.83;;
60908;SDS011;46780;48.128;-1.704;2023-08-07T10:48:28;11.85;;;2.80;;
60908;SDS011;46780;48.128;-1.704;2023-08-07T10:50:56;10.88;;;2.90;;
60908;SDS011;46780;48.128;-1.704;2023-08-07T10:53:28;9.90;;;2.75;;
60908;SDS011;46780;48.128;-1.704;2023-08-07T10:55:55;11.60;;;2.53;;
60908;SDS011;46780;48.128;-1.704;2023-08-07T10:58:25;12.73;;;2.53;;
60908;SDS011;46780;48.128;-1.704;2023-08-07T11:03:44;12.38;;;2.80;;
60908;SDS011;46780;48.128;-1.704;2023-08-07T11:06:10;11.48;;;2.60;;
60908;SDS011;46780;48.128;-1.704;2023-08-07T11:08:37;8.25;;;2.20;;
60908;SDS011;46780;48.128;-1.704;2023-08-07T11:11:04;10.55;;;2.35;;
60908;SDS011;46780;48.128;-1.704;2023-08-07T11:13:31;13.27;;;2.35;;
60908;SDS011;46780;48.128;-1.704;2023-08-07T11:15:57;20.58;;;2.47;;
60908;SDS011;46780;48.128;-1.704;2023-08-07T11:18:26;12.27;;;2.72;;
60908;SDS011;46780;48.128;-1.704;2023-08-07T11:20:53;10.90;;;2.60;;
60908;SDS011;46780;48.128;-1.704;2023-08-07T11:23:22;14.23;;;3.05;;
60908;SDS011;46780;48.128;-1.704;2023-08-07T11:25:49;8.70;;;2.40;;
60908;SDS011;46780;48.128;-1.704;2023-08-07T11:28:17;9.27;;;2.47;;
60908;SDS011;46780;48.128;-1.704;2023-08-07T11:30:44;12.07;;;2.95;;
60908;SDS011;46780;48.128;-1.704;2023-08-07T11:33:11;10.68;;;2.78;;
60908;SDS011;46780;48.128;-1.704;2023-08-07T11:35:41;11.75;;;2.58;;
60908;SDS011;46780;48.128;-1.704;2023-08-07T11:38:08;7.85;;;2.30;;
60908;SDS011;46780;48.128;-1.704;2023-08-07T11:40:35;9.05;;;2.30;;
60908;SDS011;46780;48.128;-1.704;2023-08-07T11:43:02;12.07;;;2.72;;
60908;SDS011;46780;48.128;-1.704;2023-08-07T11:45:28;11.48;;;2.97;;
60908;SDS011;46780;48.128;-1.704;2023-08-07T11:47:55;11.77;;;2.78;;
60908;SDS011;46780;48.128;-1.704;2023-08-07T11:50:22;10.65;;;3.00;;
60908;SDS011;46780;48.128;-1.704;2023-08-07T11:52:50;12.00;;;2.97;;
60908;SDS011;46780;48.128;-1.704;2023-08-07T11:55:17;15.45;;;2.70;;
60908;SDS011;46780;48.128;-1.704;2023-08-07T11:57:45;10.80;;;2.47;;
60908;SDS011;46780;48.128;-1.704;2023-08-07T12:00:12;12.20;;;2.75;;
60908;SDS011;46780;48.128;-1.704;2023-08-07T12:02:41;12.10;;;3.00;;
60908;SDS011;46780;48.128;-1.704;2023-08-07T12:05:08;14.05;;;2.75;;
60908;SDS011;46780;48.128;-1.704;2023-08-07T12:07:35;10.23;;;2.67;;
60908;SDS011;46780;48.128;-1.704;2023-08-07T12:10:03;11.48;;;2.83;;
60908;SDS011;46780;48.128;-1.704;2023-08-07T12:12:33;11.50;;;2.85;;
60908;SDS011;46780;48.128;-1.704;2023-08-07T12:14:59;10.85;;;2.92;;
60908;SDS011;46780;48.128;-1.704;2023-08-07T12:17:26;13.73;;;3.15;;
60908;SDS011;46780;48.128;-1.704;2023-08-07T12:19:57;14.85;;;3.08;;
60908;SDS011;46780;48.128;-1.704;2023-08-07T12:22:24;12.18;;;2.75;;
60908;SDS011;46780;48.128;-1.704;2023-08-07T12:24:53;9.37;;;2.53;;
60908;SDS011;46780;48.128;-1.704;2023-08-07T12:27:21;13.02;;;2.80;;
60908;SDS011;46780;48.128;-1.704;2023-08-07T12:29:48;16.40;;;3.53;;
60908;SDS011;46780;48.128;-1.704;2023-08-07T12:32:14;12.50;;;3.00;;
60908;SDS011;46780;48.128;-1.704;2023-08-07T12:34:41;16.30;;;3.30;;
60908;SDS011;46780;48.128;-1.704;2023-08-07T12:37:07;11.07;;;2.90;;
60908;SDS011;46780;48.128;-1.704;2023-08-07T12:39:34;10.85;;;3.10;;
60908;SDS011;46780;48.128;-1.704;2023-08-07T12:42:00;11.00;;;2.72;;
60908;SDS011;46780;48.128;-1.704;2023-08-07T12:44:28;12.18;;;2.97;;
60908;SDS011;46780;48.128;-1.704;2023-08-07T12:46:55;12.68;;;3.10;;
60908;SDS011;46780;48.128;-1.704;2023-08-07T12:49:21;15.00;;;3.10;;
60908;SDS011;46780;48.128;-1.704;2023-08-07T12:51:50;12.73;;;3.38;;
60908;SDS011;46780;48.128;-1.704;2023-08-07T12:54:16;11.70;;;3.03;;
60908;SDS011;46780;48.128;-1.704;2023-08-07T12:56:43;10.05;;;2.90;;
60908;SDS011;46780;48.128;-1.704;2023-08-07T12:59:09;12.30;;;3.00;;
60908;SDS011;46780;48.128;-1.704;2023-08-07T13:01:37;10.95;;;3.05;;
60908;SDS011;46780;48.128;-1.704;2023-08-07T13:04:04;7.03;;;2.72;;
60908;SDS011;46780;48.128;-1.704;2023-08-07T13:06:30;13.70;;;3.03;;
60908;SDS011;46780;48.128;-1.704;2023-08-07T13:08:57;11.95;;;2.80;;
60908;SDS011;46780;48.128;-1.704;2023-08-07T13:11:23;13.82;;;2.95;;
60908;SDS011;46780;48.128;-1.704;2023-08-07T13:13:50;9.77;;;2.67;;
60908;SDS011;46780;48.128;-1.704;2023-08-07T13:16:16;7.70;;;2.53;;
60908;SDS011;46780;48.128;-1.704;2023-08-07T13:18:44;8.77;;;3.10;;
60908;SDS011;46780;48.128;-1.704;2023-08-07T13:21:11;10.93;;;2.80;;
60908;SDS011;46780;48.128;-1.704;2023-08-07T13:23:37;15.05;;;3.17;;
60908;SDS011;46780;48.128;-1.704;2023-08-07T13:26:04;12.48;;;3.38;;
60908;SDS011;46780;48.128;-1.704;2023-08-07T13:28:30;10.98;;;3.17;;
60908;SDS011;46780;48.128;-1.704;2023-08-07T13:30:57;14.18;;;3.08;;
60908;SDS011;46780;48.128;-1.704;2023-08-07T13:33:23;12.95;;;3.03;;
60908;SDS011;46780;48.128;-1.704;2023-08-07T13:35:51;9.45;;;3.00;;
60908;SDS011;46780;48.128;-1.704;2023-08-07T13:38:18;10.40;;;3.13;;
60908;SDS011;46780;48.128;-1.704;2023-08-07T13:40:45;12.48;;;2.58;;
60908;SDS011;46780;48.128;-1.704;2023-08-07T13:43:11;9.93;;;2.72;;
60908;SDS011;46780;48.128;-1.704;2023-08-07T13:45:37;14.93;;;2.80;;
60908;SDS011;46780;48.128;-1.704;2023-08-07T13:48:04;9.60;;;2.78;;
60908;SDS011;46780;48.128;-1.704;2023-08-07T13:50:31;10.25;;;2.67;;
60908;SDS011;46780;48.128;-1.704;2023-08-07T13:52:59;7.78;;;2.83;;
60908;SDS011;46780;48.128;-1.704;2023-08-07T13:55:25;12.07;;;3.28;;
60908;SDS011;46780;48.128;-1.704;2023-08-07T13:57:52;12.02;;;3.15;;
60908;SDS011;46780;48.128;-1.704;2023-08-07T14:00:20;14.45;;;2.90;;
60908;SDS011;46780;48.128;-1.704;2023-08-07T14:02:46;9.95;;;3.00;;
60908;SDS011;46780;48.128;-1.704;2023-08-07T14:05:13;10.52;;;3.00;;
60908;SDS011;46780;48.128;-1.704;2023-08-07T14:07:39;12.52;;;3.10;;
60908;SDS011;46780;48.128;-1.704;2023-08-07T14:10:08;10.88;;;3.15;;
60908;SDS011;46780;48.128;-1.704;2023-08-07T14:12:34;18.75;;;3.15;;
60908;SDS011;46780;48.128;-1.704;2023-08-07T14:15:01;11.80;;;2.92;;
60908;SDS011;46780;48.128;-1.704;2023-08-07T14:17:28;14.63;;;2.90;;
60908;SDS011;46780;48.128;-1.704;2023-08-07T14:19:54;10.25;;;2.75;;
60908;SDS011;46780;48.128;-1.704;2023-08-07T14:22:21;10.90;;;2.67;;
60908;SDS011;46780;48.128;-1.704;2023-08-07T14:24:47;14.10;;;2.90;;